Time;durP1;ratioP1;P1;durP2;ratioP2;P2;SDS_P1;SDS_P2;PMS_P1;PMS_P2;Temp;Humidity;BMP_temperature;BMP_pressure;BME280_temperature;BME280_humidity;BME280_pressure;Samples;Min_cycle;Max_cycle;Signal;HPM_P1;HPM_P2
2024/01/13 00:02:17;;;;;;;82.40;28.92;;;;;;;2.58;100.00;102953.09;5266250;28;20027;-73
2024/01/13 00:04:47;;;;;;;89.72;29.38;;;;;;;2.55;100.00;102955.84;5271593;28;20024;-72
2024/01/13 00:07:18;;;;;;;69.72;29.20;;;;;;;2.61;100.00;102955.63;5268711;28;20016;-73
2024/01/13 00:09:48;;;;;;;76.68;30.58;;;;;;;2.62;100.00;102945.88;5269073;28;20027;-72
2024/01/13 00:12:19;;;;;;;75.20;30.10;;;;;;;2.68;100.00;102953.56;5268388;28;20027;-72
2024/01/13 00:14:51;;;;;;;86.22;32.08;;;;;;;2.72;100.00;102953.38;5272206;28;20094;-72
2024/01/13 00:17:21;;;;;;;112.22;32.13;;;;;;;2.75;100.00;102947.94;5268552;28;20028;-72
2024/01/13 00:19:52;;;;;;;88.93;33.28;;;;;;;2.80;100.00;102940.66;5267962;28;20035;-72
2024/01/13 00:22:22;;;;;;;79.05;29.98;;;;;;;2.84;100.00;102946.69;5267218;28;20404;-72
2024/01/13 00:24:53;;;;;;;76.78;30.48;;;;;;;2.85;100.00;102940.47;5267668;27;20426;-72
2024/01/13 00:27:23;;;;;;;76.50;33.72;;;;;;;2.85;100.00;102932.50;5270116;28;20070;-72
2024/01/13 00:29:54;;;;;;;76.60;32.30;;;;;;;2.89;100.00;102928.81;5271006;28;20007;-72
2024/01/13 00:32:24;;;;;;;81.95;29.20;;;;;;;2.89;100.00;102936.75;5265853;28;20089;-72
2024/01/13 00:34:54;;;;;;;68.80;28.67;;;;;;;2.89;100.00;102928.81;5271599;28;20733;-72
2024/01/13 00:37:25;;;;;;;68.30;28.73;;;;;;;2.92;100.00;102922.53;5267328;28;20046;-72
2024/01/13 00:39:55;;;;;;;64.28;27.45;;;;;;;2.94;100.00;102925.97;5269801;28;20043;-72
2024/01/13 00:42:26;;;;;;;60.45;26.58;;;;;;;3.00;100.00;102917.72;5265698;28;20028;-73
2024/01/13 00:44:56;;;;;;;68.10;26.35;;;;;;;2.99;100.00;102913.34;5270153;28;20020;-73
2024/01/13 00:47:27;;;;;;;72.43;27.83;;;;;;;2.98;100.00;102912.50;5268180;28;20024;-73
2024/01/13 00:49:57;;;;;;;64.85;26.98;;;;;;;2.99;100.00;102902.75;5267909;28;20484;-73
2024/01/13 00:52:28;;;;;;;75.97;26.77;;;;;;;2.99;100.00;102897.44;5266844;28;20020;-73
2024/01/13 00:54:58;;;;;;;62.30;26.90;;;;;;;3.03;100.00;102907.84;5268956;28;20039;-73
2024/01/13 00:57:29;;;;;;;70.63;26.77;;;;;;;3.02;100.00;102914.09;5266763;28;20023;-73
2024/01/13 00:59:59;;;;;;;60.75;26.33;;;;;;;2.99;100.00;102908.06;5269981;28;20046;-73
2024/01/13 01:02:29;;;;;;;62.00;25.17;;;;;;;3.03;100.00;102914.97;5268911;28;20024;-73
2024/01/13 01:05:00;;;;;;;60.35;26.67;;;;;;;3.05;100.00;102902.47;5271220;28;20093;-73
2024/01/13 01:07:32;;;;;;;61.63;26.95;;;;;;;3.03;100.00;102902.56;5270885;28;20028;-73
2024/01/13 01:10:02;;;;;;;72.18;28.08;;;;;;;3.04;100.00;102903.41;5266096;28;20031;-73
2024/01/13 01:12:33;;;;;;;55.38;24.40;;;;;;;3.04;100.00;102898.09;5269169;28;20028;-73
2024/01/13 01:15:04;;;;;;;62.22;25.35;;;;;;;3.02;100.00;102898.19;5268549;28;20016;-73
2024/01/13 01:17:35;;;;;;;60.78;27.17;;;;;;;3.02;100.00;102887.59;5270255;28;20044;-73
2024/01/13 01:20:05;;;;;;;60.22;24.77;;;;;;;3.00;100.00;102891.22;5266419;28;20056;-73
2024/01/13 01:22:36;;;;;;;58.97;25.88;;;;;;;2.98;100.00;102883.34;5266709;28;20059;-74
2024/01/13 01:25:07;;;;;;;68.15;25.80;;;;;;;2.99;100.00;102886.84;5266432;28;20370;-73
2024/01/13 01:27:37;;;;;;;66.75;25.35;;;;;;;2.99;100.00;102889.50;5270081;28;20059;-73
2024/01/13 01:30:08;;;;;;;53.13;24.85;;;;;;;3.04;100.00;102891.00;5270374;28;20032;-72
2024/01/13 01:32:39;;;;;;;65.82;26.65;;;;;;;3.08;100.00;102875.84;5271136;28;20389;-72
2024/01/13 01:35:09;;;;;;;56.42;24.42;;;;;;;3.05;100.00;102882.13;5271313;28;20048;-72
2024/01/13 01:37:40;;;;;;;59.40;24.45;;;;;;;3.06;100.00;102877.69;5272542;28;20023;-72
2024/01/13 01:40:14;;;;;;;60.03;24.55;;;;;;;3.01;100.00;102871.72;5269168;28;20031;-73
2024/01/13 01:42:45;;;;;;;63.55;26.25;;;;;;;3.00;100.00;102867.34;5272707;28;20024;-72
2024/01/13 01:45:15;;;;;;;80.43;27.42;;;;;;;2.98;100.00;102874.53;5270427;28;20672;-72
2024/01/13 01:47:46;;;;;;;65.43;25.50;;;;;;;2.97;100.00;102863.06;5276210;28;20035;-72
2024/01/13 01:50:17;;;;;;;59.22;25.15;;;;;;;2.93;100.00;102871.22;5270630;28;20594;-72
2024/01/13 01:52:48;;;;;;;55.08;24.45;;;;;;;2.96;100.00;102871.06;5272401;28;20027;-72
2024/01/13 01:55:18;;;;;;;54.60;24.52;;;;;;;2.97;100.00;102872.81;5268511;28;20626;-73
2024/01/13 01:57:50;;;;;;;65.38;25.25;;;;;;;2.97;100.00;102873.66;5268079;28;20373;-73
2024/01/13 02:00:21;;;;;;;61.50;26.17;;;;;;;2.97;100.00;102859.53;5269348;28;20016;-73
2024/01/13 02:02:51;;;;;;;68.45;26.05;;;;;;;2.95;100.00;102854.28;5271731;28;20366;-73
2024/01/13 02:05:22;;;;;;;53.28;24.38;;;;;;;2.97;100.00;102859.53;5270084;28;20039;-73
2024/01/13 02:07:53;;;;;;;58.60;24.85;;;;;;;3.01;100.00;102858.47;5273079;28;20027;-74
2024/01/13 02:10:24;;;;;;;53.25;24.92;;;;;;;3.05;100.00;102852.94;5269693;28;20420;-74
2024/01/13 02:12:55;;;;;;;64.85;24.83;;;;;;;3.05;100.00;102850.31;5272609;28;20617;-73
2024/01/13 02:15:25;;;;;;;60.10;25.70;;;;;;;3.06;100.00;102843.19;5267239;28;20028;-73
2024/01/13 02:17:57;;;;;;;59.40;25.23;;;;;;;3.05;100.00;102841.50;5272202;28;20476;-73
2024/01/13 02:20:28;;;;;;;58.40;25.10;;;;;;;3.03;100.00;102846.88;5270856;28;20078;-73
2024/01/13 02:22:58;;;;;;;50.80;25.05;;;;;;;3.03;100.00;102846.00;5271111;28;20770;-73
2024/01/13 02:25:29;;;;;;;54.85;25.35;;;;;;;3.01;100.00;102829.28;5272349;28;20105;-73
2024/01/13 02:28:10;;;;;;;53.30;24.40;;;;;;;3.01;100.00;102830.19;5270551;28;20024;-73
2024/01/13 02:30:41;;;;;;;58.25;25.27;;;;;;;3.00;100.00;102830.22;5270223;28;20020;-73
2024/01/13 02:33:20;;;;;;;67.50;25.35;;;;;;;3.03;100.00;102832.75;5266483;28;20028;-73
2024/01/13 02:36:00;;;;;;;50.63;25.15;;;;;;;3.03;100.00;102819.50;5273213;28;20081;-73
2024/01/13 02:38:30;;;;;;;57.13;23.33;;;;;;;3.04;100.00;102827.38;5272094;28;20385;-73
2024/01/13 02:41:01;;;;;;;53.67;24.58;;;;;;;3.05;100.00;102822.91;5270428;28;20029;-73
2024/01/13 02:43:31;;;;;;;56.03;24.02;;;;;;;3.10;100.00;102824.44;5270497;28;20062;-73
2024/01/13 02:46:02;;;;;;;57.08;24.70;;;;;;;3.12;100.00;102816.44;5271050;28;20073;-73
2024/01/13 02:48:39;;;;;;;50.78;22.13;;;;;;;3.09;100.00;102816.56;5269479;28;20162;-73
2024/01/13 02:51:14;;;;;;;46.80;22.58;;;;;;;3.08;100.00;102804.22;5270189;28;20016;-73
2024/01/13 02:53:45;;;;;;;43.70;20.20;;;;;;;3.11;100.00;102812.03;5269133;28;20492;-74
2024/01/13 02:56:16;;;;;;;50.67;24.05;;;;;;;3.14;100.00;102809.25;5269687;28;20039;-73
2024/01/13 02:58:46;;;;;;;48.13;21.35;;;;;;;3.08;100.00;102807.75;5270610;28;20012;-73
2024/01/13 03:01:17;;;;;;;57.80;24.40;;;;;;;3.04;100.00;102800.00;5270158;28;20059;-73
2024/01/13 03:03:50;;;;;;;50.10;22.83;;;;;;;3.01;100.00;102797.47;5266412;28;20024;-73
2024/01/13 03:06:22;;;;;;;46.38;23.05;;;;;;;2.99;100.00;102794.03;5270499;28;20107;-73
2024/01/13 03:08:54;;;;;;;50.88;21.63;;;;;;;3.02;100.00;102796.56;5272651;28;20026;-73
2024/01/13 03:11:24;;;;;;;43.67;21.58;;;;;;;2.99;100.00;102786.94;5263345;28;20036;-73
2024/01/13 03:13:55;;;;;;;46.40;22.42;;;;;;;2.99;100.00;102780.78;5272658;28;20072;-73
2024/01/13 03:16:26;;;;;;;57.00;22.38;;;;;;;2.98;100.00;102781.72;5269460;28;20077;-73
2024/01/13 03:18:57;;;;;;;50.47;22.33;;;;;;;2.97;100.00;102777.34;5271902;28;20026;-73
2024/01/13 03:21:27;;;;;;;40.67;18.25;;;;;;;2.96;100.00;102775.59;5268652;28;20024;-73
2024/01/13 03:23:58;;;;;;;42.05;19.42;;;;;;;2.97;100.00;102778.22;5269788;28;20077;-73
2024/01/13 03:26:28;;;;;;;43.70;20.67;;;;;;;3.00;100.00;102771.88;5268814;28;20024;-73
2024/01/13 03:28:59;;;;;;;39.42;18.63;;;;;;;3.05;100.00;102769.88;5267333;28;20027;-73
2024/01/13 03:31:30;;;;;;;32.70;17.27;;;;;;;3.04;100.00;102769.03;5268043;28;20020;-73
2024/01/13 03:34:00;;;;;;;36.38;17.38;;;;;;;3.06;100.00;102764.53;5270956;28;20020;-73
2024/01/13 03:36:31;;;;;;;40.72;17.55;;;;;;;3.09;100.00;102774.13;5265090;28;20020;-74
2024/01/13 03:39:03;;;;;;;45.88;17.92;;;;;;;3.08;100.00;102764.44;5270933;28;20485;-73
2024/01/13 03:41:34;;;;;;;35.50;16.30;;;;;;;3.10;100.00;102758.13;5269525;28;20032;-73
2024/01/13 03:44:05;;;;;;;33.08;16.15;;;;;;;3.15;100.00;102755.25;5269518;28;20066;-73
2024/01/13 03:46:36;;;;;;;35.00;15.80;;;;;;;3.18;100.00;102760.44;5271059;28;20111;-73
2024/01/13 03:49:06;;;;;;;33.55;16.00;;;;;;;3.17;100.00;102750.78;5268268;28;20505;-73
2024/01/13 03:51:36;;;;;;;30.45;14.75;;;;;;;3.19;100.00;102745.38;5270110;28;20046;-73
2024/01/13 03:54:07;;;;;;;30.67;14.98;;;;;;;3.19;100.00;102737.44;5267505;28;20035;-72
2024/01/13 03:56:37;;;;;;;34.75;14.30;;;;;;;3.19;100.00;102738.28;5270563;28;20108;-72
2024/01/13 03:59:12;;;;;;;33.28;15.50;;;;;;;3.18;100.00;102727.75;5268900;28;20035;-72
2024/01/13 04:01:43;;;;;;;30.45;14.60;;;;;;;3.17;100.00;102723.38;5266551;28;20552;-72
2024/01/13 04:04:13;;;;;;;30.35;14.43;;;;;;;3.21;100.00;102722.28;5268018;28;20164;-72
2024/01/13 04:06:44;;;;;;;28.08;14.38;;;;;;;3.22;100.00;102711.63;5270112;28;20028;-72
2024/01/13 04:09:14;;;;;;;37.85;14.63;;;;;;;3.26;100.00;102714.97;5268029;28;20506;-72
2024/01/13 04:11:45;;;;;;;30.45;13.90;;;;;;;3.22;100.00;102701.00;5263011;28;20027;-72
2024/01/13 04:14:15;;;;;;;26.23;13.57;;;;;;;3.24;100.00;102707.09;5268401;28;20106;-72
2024/01/13 04:16:46;;;;;;;25.42;12.93;;;;;;;3.28;100.00;102702.50;5269139;28;20024;-72
2024/01/13 04:19:17;;;;;;;30.42;14.10;;;;;;;3.27;100.00;102699.00;5266604;28;20031;-74
2024/01/13 04:21:47;;;;;;;29.15;12.82;;;;;;;3.28;100.00;102710.47;5268771;28;20050;-74
2024/01/13 04:24:18;;;;;;;26.45;12.05;;;;;;;3.30;100.00;102711.25;5265405;28;20020;-74
2024/01/13 04:26:48;;;;;;;22.95;11.25;;;;;;;3.29;100.00;102694.47;5269329;28;20031;-72
2024/01/13 04:29:19;;;;;;;21.27;11.00;;;;;;;3.28;100.00;102690.09;5265553;28;20013;-72
2024/01/13 04:31:49;;;;;;;21.70;10.80;;;;;;;3.30;100.00;102679.41;5267811;28;20016;-72
2024/01/13 04:34:20;;;;;;;22.15;11.20;;;;;;;3.30;100.00;102674.97;5264275;28;20035;-72
2024/01/13 04:36:50;;;;;;;25.35;11.02;;;;;;;3.31;100.00;102673.16;5267366;28;20149;-72
2024/01/13 04:39:21;;;;;;;19.13;9.98;;;;;;;3.33;100.00;102669.50;5266714;28;20113;-73
2024/01/13 04:41:51;;;;;;;22.27;10.07;;;;;;;3.35;100.00;102670.28;5268211;28;20172;-73
2024/01/13 04:44:22;;;;;;;21.70;10.85;;;;;;;3.33;100.00;102673.97;5265443;28;20397;-73
2024/01/13 04:46:52;;;;;;;24.08;10.85;;;;;;;3.33;100.00;102680.13;5269196;28;20027;-73
2024/01/13 04:49:23;;;;;;;24.88;11.60;;;;;;;3.34;100.00;102679.19;5266881;28;20030;-73
2024/01/13 04:51:53;;;;;;;22.85;10.82;;;;;;;3.35;100.00;102680.03;5267719;28;20027;-72
2024/01/13 04:54:24;;;;;;;24.15;10.93;;;;;;;3.36;100.00;102671.13;5266440;28;20110;-72
2024/01/13 04:56:55;;;;;;;23.10;11.35;;;;;;;3.34;100.00;102671.22;5266408;28;20031;-73
2024/01/13 04:59:25;;;;;;;22.85;10.60;;;;;;;3.35;100.00;102664.13;5266748;28;20119;-74
2024/01/13 05:01:55;;;;;;;23.88;10.60;;;;;;;3.33;100.00;102666.00;5265529;28;20051;-73
2024/01/13 05:04:26;;;;;;;20.85;10.52;;;;;;;3.32;100.00;102659.00;5268462;28;20028;-73
2024/01/13 05:06:56;;;;;;;19.48;10.18;;;;;;;3.31;100.00;102665.19;5267853;28;20524;-73
2024/01/13 05:09:27;;;;;;;23.77;12.38;;;;;;;3.31;100.00;102654.59;5274171;28;20035;-73
2024/01/13 05:11:57;;;;;;;31.10;14.10;;;;;;;3.29;100.00;102662.63;5266685;27;20180;-73
2024/01/13 05:14:28;;;;;;;23.40;10.57;;;;;;;3.26;100.00;102660.16;5268860;28;20024;-72
2024/01/13 05:16:58;;;;;;;24.05;11.43;;;;;;;3.24;100.00;102655.84;5268834;28;20027;-73
2024/01/13 05:19:29;;;;;;;21.88;10.65;;;;;;;3.25;100.00;102647.78;5270548;28;20477;-73
2024/01/13 05:21:59;;;;;;;26.98;14.35;;;;;;;3.26;100.00;102652.19;5271041;28;20024;-73
2024/01/13 05:24:30;;;;;;;24.65;11.98;;;;;;;3.27;100.00;102653.91;5268227;28;20032;-74
2024/01/13 05:27:00;;;;;;;31.58;14.10;;;;;;;3.29;100.00;102640.56;5273443;27;20020;-74
2024/01/13 05:29:31;;;;;;;146.40;65.72;;;;;;;3.30;100.00;102639.63;5270368;28;20020;-74
2024/01/13 05:32:01;;;;;;;27.42;11.82;;;;;;;3.28;100.00;102639.69;5274456;27;20015;-74
2024/01/13 05:34:32;;;;;;;23.75;11.40;;;;;;;3.28;100.00;102631.75;5270663;28;20070;-74
2024/01/13 05:37:02;;;;;;;37.78;17.95;;;;;;;3.31;100.00;102634.25;5269637;28;20043;-74
2024/01/13 05:39:33;;;;;;;23.40;11.73;;;;;;;3.26;100.00;102638.03;5268889;28;20668;-74
2024/01/13 05:42:03;;;;;;;22.08;11.00;;;;;;;3.29;100.00;102620.19;5273909;27;20027;-74
2024/01/13 05:44:34;;;;;;;25.77;11.57;;;;;;;3.30;100.00;102616.59;5268790;28;20081;-74
2024/01/13 05:47:08;;;;;;;23.88;11.60;;;;;;;3.30;100.00;102621.91;5272282;27;20032;-74
2024/01/13 05:49:39;;;;;;;24.92;11.13;;;;;;;3.32;100.00;102620.06;5269477;28;20496;-73
2024/01/13 05:52:10;;;;;;;24.15;12.82;;;;;;;3.34;100.00;102631.44;5270512;28;20020;-74
2024/01/13 05:54:41;;;;;;;27.02;11.38;;;;;;;3.33;100.00;102621.75;5270930;28;20081;-74
2024/01/13 05:57:12;;;;;;;26.73;12.15;;;;;;;3.33;100.00;102631.53;5271874;28;20054;-73
2024/01/13 05:59:43;;;;;;;37.58;20.65;;;;;;;3.32;100.00;102632.47;5270332;28;20024;-73
2024/01/13 06:02:14;;;;;;;26.58;12.15;;;;;;;3.31;100.00;102631.59;5270745;27;20085;-73
2024/01/13 06:04:46;;;;;;;27.63;13.35;;;;;;;3.32;100.00;102635.13;5271965;28;20098;-73
2024/01/13 06:07:16;;;;;;;40.63;19.33;;;;;;;3.34;100.00;102646.50;5264935;28;20024;-73
2024/01/13 06:09:47;;;;;;;27.27;12.25;;;;;;;3.34;100.00;102639.41;5270421;28;20035;-73
2024/01/13 06:12:18;;;;;;;23.70;12.15;;;;;;;3.31;100.00;102638.69;5269998;28;20035;-73
2024/01/13 06:14:48;;;;;;;24.60;11.43;;;;;;;3.31;100.00;102634.25;5274435;27;20054;-73
2024/01/13 06:17:19;;;;;;;26.95;11.82;;;;;;;3.32;100.00;102633.31;5269210;28;20453;-73
2024/01/13 06:19:49;;;;;;;32.35;15.13;;;;;;;3.42;100.00;102627.56;5265108;28;20530;-73
2024/01/13 06:22:20;;;;;;;28.58;11.93;;;;;;;3.36;100.00;102626.94;5267171;28;20055;-73
2024/01/13 06:24:50;;;;;;;31.30;14.57;;;;;;;3.37;100.00;102623.34;5261758;28;20089;-73
2024/01/13 06:27:20;;;;;;;28.30;12.63;;;;;;;3.42;100.00;102620.44;5266863;28;20015;-73
2024/01/13 06:29:51;;;;;;;28.35;11.63;;;;;;;3.41;100.00;102620.50;5267008;28;21418;-73
2024/01/13 06:32:21;;;;;;;26.60;12.20;;;;;;;3.45;100.00;102619.44;5265403;28;20035;-73
2024/01/13 06:34:52;;;;;;;29.17;13.43;;;;;;;3.48;100.00;102635.19;5268278;28;20485;-73
2024/01/13 06:37:22;;;;;;;30.48;12.43;;;;;;;3.54;100.00;102645.50;5266766;28;20404;-74
2024/01/13 06:39:53;;;;;;;27.80;12.73;;;;;;;3.58;100.00;102655.91;5267616;28;20451;-74
2024/01/13 06:42:23;;;;;;;33.20;13.85;;;;;;;3.64;100.00;102649.41;5263712;28;20036;-74
2024/01/13 06:44:54;;;;;;;27.38;12.48;;;;;;;3.56;100.00;102649.78;5266765;28;20026;-74
2024/01/13 06:47:24;;;;;;;25.35;12.07;;;;;;;3.50;100.00;102638.63;5268311;28;20111;-74
2024/01/13 06:49:55;;;;;;;29.15;12.10;;;;;;;3.47;100.00;102626.38;5270335;28;20121;-73
2024/01/13 06:52:25;;;;;;;31.10;12.55;;;;;;;3.42;100.00;102612.50;5265377;28;20039;-72
2024/01/13 06:54:56;;;;;;;32.33;13.65;;;;;;;3.43;100.00;102611.56;5252604;28;20024;-72
2024/01/13 06:57:26;;;;;;;25.95;12.38;;;;;;;3.43;100.00;102616.84;5260803;28;20063;-73
2024/01/13 06:59:57;;;;;;;28.20;12.48;;;;;;;3.43;100.00;102611.56;5265127;28;20049;-73
2024/01/13 07:02:27;;;;;;;29.58;12.52;;;;;;;3.44;100.00;102601.78;5267620;28;20540;-73
2024/01/13 07:05:00;;;;;;;26.50;11.88;;;;;;;3.36;100.00;102595.09;5269585;28;20392;-73
2024/01/13 07:07:31;;;;;;;27.80;12.65;;;;;;;3.42;100.00;102599.22;5265953;28;20031;-73
2024/01/13 07:10:04;;;;;;;24.58;11.20;;;;;;;3.41;100.00;102597.47;5268309;28;20068;-73
2024/01/13 07:12:35;;;;;;;28.77;11.20;;;;;;;3.41;100.00;102600.13;5265381;28;20028;-72
2024/01/13 07:15:06;;;;;;;27.23;12.68;;;;;;;3.44;100.00;102596.50;5263919;28;20347;-73
2024/01/13 07:17:37;;;;;;;28.73;13.02;;;;;;;3.45;100.00;102593.75;5267424;28;20039;-73
2024/01/13 07:20:07;;;;;;;26.35;11.82;;;;;;;3.44;100.00;102586.72;5267941;28;20028;-72
2024/01/13 07:22:38;;;;;;;29.73;10.90;;;;;;;3.44;100.00;102584.06;5265559;28;20028;-72
2024/01/13 07:25:08;;;;;;;31.90;14.35;;;;;;;3.46;100.00;102587.50;5267982;28;20477;-73
2024/01/13 07:27:39;;;;;;;29.63;13.55;;;;;;;3.46;100.00;102578.69;5267508;28;20028;-73
2024/01/13 07:30:10;;;;;;;21.67;9.93;;;;;;;3.46;100.00;102557.44;5265995;28;20446;-73
2024/01/13 07:32:40;;;;;;;26.35;12.32;;;;;;;3.47;100.00;102561.84;5254229;28;20050;-71
2024/01/13 07:35:11;;;;;;;24.73;11.68;;;;;;;3.45;100.00;102548.63;5261346;28;20028;-73
2024/01/13 07:37:43;;;;;;;39.25;22.40;;;;;;;3.50;100.00;102561.69;5252777;28;20026;-73
2024/01/13 07:40:13;;;;;;;30.13;12.85;;;;;;;3.53;100.00;102556.22;5264976;28;20444;-73
2024/01/13 07:42:44;;;;;;;28.58;12.15;;;;;;;3.52;100.00;102541.25;5266239;28;20032;-73
2024/01/13 07:45:14;;;;;;;29.10;12.52;;;;;;;3.52;100.00;102539.44;5262505;28;20028;-73
2024/01/13 07:47:46;;;;;;;26.88;11.63;;;;;;;3.51;100.00;102547.47;5259671;28;20039;-73
2024/01/13 07:50:17;;;;;;;24.40;11.38;;;;;;;3.51;100.00;102535.06;5255810;28;20028;-73
2024/01/13 07:52:48;;;;;;;25.00;12.32;;;;;;;3.47;100.00;102524.69;5266208;28;20118;-73
2024/01/13 07:55:18;;;;;;;26.13;12.05;;;;;;;3.51;100.00;102528.88;5266619;28;20565;-73
2024/01/13 07:57:49;;;;;;;33.03;15.50;;;;;;;3.54;100.00;102536.69;5266789;28;20039;-73
2024/01/13 08:00:20;;;;;;;40.20;18.38;;;;;;;3.53;100.00;102532.34;5266811;28;20016;-73
2024/01/13 08:02:50;;;;;;;29.45;13.57;;;;;;;3.54;100.00;102524.28;5264835;28;20503;-73
2024/01/13 08:05:21;;;;;;;29.13;14.05;;;;;;;3.55;100.00;102523.34;5266576;28;20032;-73
2024/01/13 08:07:52;;;;;;;30.45;13.48;;;;;;;3.55;100.00;102511.88;5268409;28;20035;-73
2024/01/13 08:10:23;;;;;;;29.63;12.75;;;;;;;3.55;100.00;102506.56;5263911;28;20366;-73
2024/01/13 08:12:53;;;;;;;28.52;13.18;;;;;;;3.57;100.00;102507.38;5267784;28;20108;-73
2024/01/13 08:15:24;;;;;;;28.30;13.48;;;;;;;3.59;100.00;102511.63;5265507;28;20028;-73
2024/01/13 08:17:54;;;;;;;33.17;14.73;;;;;;;3.61;100.00;102506.25;5266493;28;20076;-73
2024/01/13 08:20:25;;;;;;;32.67;14.93;;;;;;;3.62;100.00;102502.66;5266003;28;20032;-73
2024/01/13 08:22:55;;;;;;;37.08;15.48;;;;;;;3.60;100.00;102501.88;5266925;28;20023;-73
2024/01/13 08:25:26;;;;;;;34.58;13.88;;;;;;;3.59;100.00;102502.81;5267889;28;20487;-73
2024/01/13 08:27:56;;;;;;;33.80;14.75;;;;;;;3.61;100.00;102495.63;5268443;28;20024;-73
2024/01/13 08:30:27;;;;;;;32.60;14.88;;;;;;;3.58;100.00;102501.09;5266928;28;20024;-73
2024/01/13 08:32:57;;;;;;;37.53;17.05;;;;;;;3.61;100.00;102490.31;5267775;28;20098;-73
2024/01/13 08:35:27;;;;;;;36.17;15.60;;;;;;;3.59;100.00;102484.25;5266641;28;20047;-73
2024/01/13 08:37:58;;;;;;;35.33;15.93;;;;;;;3.57;100.00;102480.81;5267749;28;20028;-73
2024/01/13 08:40:28;;;;;;;38.97;16.27;;;;;;;3.52;100.00;102477.56;5263978;28;20508;-73
2024/01/13 08:43:02;;;;;;;33.75;14.95;;;;;;;3.58;100.00;102474.56;5267679;28;20027;-73
2024/01/13 08:45:33;;;;;;;37.92;16.92;;;;;;;3.54;100.00;102473.88;5267100;28;20481;-73
2024/01/13 08:48:04;;;;;;;39.72;17.15;;;;;;;3.60;100.00;102486.81;5267422;28;20115;-73
2024/01/13 08:50:35;;;;;;;44.22;21.42;;;;;;;3.63;100.00;102491.97;5266776;28;20103;-73
2024/01/13 08:53:06;;;;;;;43.10;17.92;;;;;;;3.63;100.00;102485.81;5266539;28;20564;-73
2024/01/13 08:55:36;;;;;;;42.20;16.10;;;;;;;3.68;100.00;102482.91;5267097;28;20031;-73
2024/01/13 08:58:07;;;;;;;44.00;18.70;;;;;;;3.70;100.00;102491.63;5266078;28;20366;-73
2024/01/13 09:00:37;;;;;;;36.45;16.60;;;;;;;3.66;100.00;102487.41;5266513;28;20031;-73
2024/01/13 09:03:08;;;;;;;38.55;17.08;;;;;;;3.68;100.00;102497.03;5264648;28;20533;-73
2024/01/13 09:05:39;;;;;;;44.05;18.42;;;;;;;3.72;100.00;102479.16;5268807;28;20704;-73
2024/01/13 09:08:09;;;;;;;42.50;17.45;;;;;;;3.72;100.00;102493.28;5266079;28;20024;-73
2024/01/13 09:10:40;;;;;;;42.78;18.25;;;;;;;3.69;100.00;102474.84;5267783;28;20024;-73
2024/01/13 09:13:10;;;;;;;51.55;19.42;;;;;;;3.67;100.00;102478.53;5265626;28;20020;-73
2024/01/13 09:15:41;;;;;;;61.17;26.65;;;;;;;3.65;100.00;102481.25;5268518;28;20024;-73
2024/01/13 09:18:11;;;;;;;46.00;20.15;;;;;;;3.56;100.00;102479.94;5267198;28;20028;-73
2024/01/13 09:20:42;;;;;;;41.33;18.55;;;;;;;3.61;100.00;102472.63;5266409;28;20024;-73
2024/01/13 09:23:12;;;;;;;45.55;19.77;;;;;;;3.61;100.00;102471.75;5265417;28;20088;-73
2024/01/13 09:25:43;;;;;;;43.78;19.52;;;;;;;3.67;100.00;102468.78;5267830;28;20023;-73
2024/01/13 09:28:13;;;;;;;45.88;18.80;;;;;;;3.66;100.00;102474.16;5266900;28;20058;-73
2024/01/13 09:30:44;;;;;;;42.38;19.10;;;;;;;3.69;100.00;102468.69;5267777;28;20190;-73
2024/01/13 09:33:15;;;;;;;55.13;21.80;;;;;;;3.70;100.00;102481.88;5265621;28;20027;-73
2024/01/13 09:35:45;;;;;;;49.35;20.90;;;;;;;3.78;100.00;102481.47;5265998;28;20493;-73
2024/01/13 09:38:16;;;;;;;52.17;20.60;;;;;;;3.72;100.00;102480.00;5260322;28;20021;-73
2024/01/13 09:40:46;;;;;;;45.00;19.50;;;;;;;3.75;100.00;102482.47;5267892;28;20055;-73
2024/01/13 09:43:38;;;;;;;52.17;21.90;;;;;;;3.80;100.00;102488.41;5264708;28;20438;-73
2024/01/13 09:46:08;;;;;;;62.80;30.15;;;;;;;3.84;100.00;102489.09;5266369;28;20054;-73
2024/01/13 09:48:39;;;;;;;63.50;32.47;;;;;;;3.85;100.00;102498.78;5268225;28;20028;-73
2024/01/13 09:51:11;;;;;;;50.83;22.40;;;;;;;3.93;100.00;102503.69;5266752;28;20046;-73
2024/01/13 09:53:47;;;;;;;48.10;20.73;;;;;;;3.92;100.00;102497.53;5272131;28;20024;-74
2024/01/13 09:56:22;;;;;;;43.67;20.15;;;;;;;3.90;100.00;102499.38;5264685;28;20443;-73
2024/01/13 09:58:53;;;;;;;44.88;20.05;;;;;;;3.83;100.00;102500.66;5271617;28;20031;-73
2024/01/13 10:01:26;;;;;;;51.72;21.58;;;;;;;3.85;100.00;102493.47;5270609;28;20032;-73
2024/01/13 10:03:56;;;;;;;61.65;27.23;;;;;;;3.90;100.00;102491.41;5271262;28;20160;-73
2024/01/13 10:06:27;;;;;;;50.70;21.33;;;;;;;3.91;100.00;102485.16;5270222;28;20102;-73
2024/01/13 10:08:57;;;;;;;45.15;20.08;;;;;;;3.88;100.00;102488.84;5271594;28;20024;-74
2024/01/13 10:11:28;;;;;;;51.80;20.27;;;;;;;3.80;100.00;102495.50;5270041;28;20031;-73
2024/01/13 10:14:01;;;;;;;48.08;20.45;;;;;;;3.82;100.00;102488.34;5271223;27;20019;-73
2024/01/13 10:16:33;;;;;;;47.83;18.77;;;;;;;3.85;100.00;102483.69;5270859;28;20051;-73
2024/01/13 10:19:06;;;;;;;45.20;19.30;;;;;;;3.84;100.00;102489.94;5270710;28;23195;-73
2024/01/13 10:21:37;;;;;;;43.10;18.67;;;;;;;3.82;100.00;102497.16;5270932;28;20050;-73
2024/01/13 10:24:08;;;;;;;45.63;19.02;;;;;;;3.85;100.00;102493.47;5269776;28;20024;-73
2024/01/13 10:26:39;;;;;;;47.80;19.23;;;;;;;3.89;100.00;102497.69;5271391;28;20111;-73
2024/01/13 10:29:10;;;;;;;43.70;19.13;;;;;;;3.85;100.00;102488.16;5269844;28;20065;-73
2024/01/13 10:31:40;;;;;;;44.85;19.50;;;;;;;3.81;100.00;102478.63;5271354;28;20477;-73
2024/01/13 10:34:11;;;;;;;53.17;21.58;;;;;;;3.81;100.00;102478.63;5269534;28;20028;-73
2024/01/13 10:36:42;;;;;;;48.13;22.85;;;;;;;3.88;100.00;102469.41;5271840;28;20024;-73
2024/01/13 10:39:13;;;;;;;53.83;19.58;;;;;;;3.88;100.00;102462.31;5269790;28;20107;-73
2024/01/13 10:41:46;;;;;;;45.58;20.02;;;;;;;3.77;100.00;102447.91;5276359;28;20027;-73
2024/01/13 10:44:17;;;;;;;48.25;19.40;;;;;;;3.75;100.00;102436.50;5279618;28;20385;-73
2024/01/13 10:46:49;;;;;;;53.60;20.08;;;;;;;3.78;100.00;102445.16;5271987;28;20061;-73
2024/01/13 10:49:31;;;;;;;53.10;20.88;;;;;;;3.78;100.00;102434.53;5257227;28;20047;-73
2024/01/13 10:52:03;;;;;;;42.67;19.33;;;;;;;3.77;100.00;102424.00;5271498;28;21287;-73
2024/01/13 10:54:34;;;;;;;40.35;17.70;;;;;;;3.82;100.00;102417.50;5266526;28;20028;-73
2024/01/13 10:57:04;;;;;;;44.17;19.30;;;;;;;3.85;100.00;102416.47;5271464;28;20039;-73
2024/01/13 10:59:36;;;;;;;47.28;19.90;;;;;;;3.84;100.00;102415.63;5262005;28;20122;-73
2024/01/13 11:02:11;;;;;;;42.60;18.80;;;;;;;3.79;100.00;102406.19;5272463;28;20578;-74
2024/01/13 11:04:42;;;;;;;51.47;21.30;;;;;;;3.79;100.00;102404.41;5275404;28;20028;-73
2024/01/13 11:07:13;;;;;;;49.95;19.63;;;;;;;3.83;100.00;102402.44;5273931;28;20031;-73
2024/01/13 11:09:45;;;;;;;47.83;20.10;;;;;;;3.82;100.00;102408.69;5277926;28;20030;-73
2024/01/13 11:12:28;;;;;;;44.58;19.42;;;;;;;3.85;100.00;102403.19;5263796;28;20031;-73
2024/01/13 11:15:17;;;;;;;48.75;21.38;;;;;;;3.85;100.00;102395.22;5270652;28;20019;-73
2024/01/13 11:17:48;;;;;;;45.88;19.83;;;;;;;3.86;100.00;102395.13;5268201;28;20032;-73
2024/01/13 11:20:19;;;;;;;43.53;18.98;;;;;;;3.87;100.00;102394.22;5266678;28;20023;-73
2024/01/13 11:22:58;;;;;;;45.70;19.20;;;;;;;3.88;100.00;102398.59;5271973;28;20290;-73
2024/01/13 11:25:29;;;;;;;55.78;25.40;;;;;;;3.92;100.00;102390.47;5264097;28;20027;-73
2024/01/13 11:28:01;;;;;;;87.10;53.72;;;;;;;3.95;100.00;102379.66;5266631;28;20023;-73